Latest Coastal Weather Observations for Lockhart River

IDQ60701

Issued at 11:35 am EST Thursday 23 October 2014 (issued every 10 minutes, with the page automatically refreshed every 10 minutes)

About coastal observations | Map of coastal stations | Coastal observations for QLD | Marine services | Other Formats
Station Details ID: 028008 Name: LOCKHART RIVER AIRPORT Lat: -12.79 Lon: 143.30 Height: 18.5 m
Data from the previous 72 hours. | See also: Recent months at Lockhart River
Date/Time
EST
Temp

°C
Wind Pressure Rain
since 9am
mm
Weather Cloud Vis
km
Sea
Height
m
Swell
Dir
 
Speed
knots
Gust
knots
hPa Trend Height
m
Period
s
Dir
23/11:30am 27.7 ESE 14 20 1015.3 - 0.0 - Partly cloudy - - - - -
23/11:00am 27.6 ESE 15 20 1015.5 - 0.0 - Partly cloudy - - - - -
23/10:30am 27.7 ESE 16 23 1015.7 - 0.0 - Partly cloudy - - - - -
23/10:00am 27.2 ESE 15 22 1016.0 - 0.0 - Partly cloudy - - - - -
23/09:30am 25.9 ESE 13 21 1016.3 - 0.0 - Partly cloudy - - - - -
23/09:00am 26.1 ESE 16 23 1016.2 - 6.2 Fine Mostly cloudy 18 - - - -
23/08:30am 26.6 SE 14 21 1016.0 - 6.2 - Partly cloudy - - - - -
23/08:00am 25.4 ESE 13 20 1015.9 - 6.2 - Partly cloudy - - - - -
23/07:30am 25.0 SE 11 15 1015.6 - 6.2 - Partly cloudy - - - - -
23/07:00am 24.4 SE 8 11 1015.3 - 6.2 - Partly cloudy - - - - -
23/06:30am 23.2 SE 7 9 1015.0 - 6.2 - Partly cloudy - - - - -
23/06:00am 22.8 SE 7 11 1014.8 - 6.2 - Partly cloudy - - - - -
23/05:30am 23.1 SE 9 12 1014.7 - 6.2 - Partly cloudy - - - - -
23/05:00am 23.0 SE 8 11 1014.4 - 6.2 - Partly cloudy - - - - -
23/04:30am 23.2 ESE 9 12 1014.3 - 6.2 - Partly cloudy - - - - -
23/04:00am 23.0 SE 9 12 1014.1 - 6.2 - Partly cloudy - - - - -
23/03:30am 23.5 ESE 9 14 1014.2 - 6.2 - Partly cloudy - - - - -
23/03:00am 23.6 ESE 11 17 1014.1 - 6.2 - Partly cloudy - - - - -
23/02:30am 23.4 ESE 9 12 1014.4 - 6.2 - Partly cloudy - - - - -
23/02:00am 23.0 SE 11 16 1014.6 - 6.2 - Partly cloudy - - - - -
23/01:30am 23.3 ESE 10 14 1015.0 - 6.2 - Partly cloudy - - - - -
23/01:00am 23.3 ESE 11 17 1015.3 - 6.2 - Partly cloudy - - - - -
23/12:30am 22.9 SE 13 22 1015.8 - 2.6 - Partly cloudy - - - - -
23/12:00am 24.7 ESE 11 15 1015.9 - 1.6 - Partly cloudy - - - - -
 
Date/Time
EST
Temp

°C
Wind Pressure Rain
since 9am
mm
Weather Cloud Vis
km
Sea
Height
m
Swell
Dir
 
Speed
knots
Gust
knots
hPa Trend Height
m
Period
s
Dir
22/11:30pm 24.7 ESE 11 15 1016.4 - 1.6 - Partly cloudy - - - - -
22/11:00pm 24.8 ESE 12 19 1016.5 - 1.6 - Partly cloudy - - - - -
22/10:30pm 24.8 ESE 11 15 1016.6 - 1.6 - Cloudy - - - - -
22/10:00pm 24.9 ESE 11 19 1016.5 - 1.6 - Cloudy - - - - -
22/09:30pm 24.7 ESE 10 14 1016.4 - 1.6 - Cloudy - - - - -
22/09:00pm 24.8 ESE 12 19 1016.1 - 1.6 - Partly cloudy - - - - -
22/08:30pm 24.7 ESE 11 16 1016.0 - 1.6 - Partly cloudy - - - - -
22/08:00pm 24.7 ESE 11 17 1015.6 - 1.6 - Partly cloudy - - - - -
22/07:30pm 24.8 ESE 12 16 1015.3 - 1.6 - Partly cloudy - - - - -
22/07:00pm 24.7 ESE 10 15 1015.0 - 1.6 - Partly cloudy - - - - -
22/06:30pm 24.9 ESE 8 15 1014.7 - 1.6 - Partly cloudy - - - - -
22/06:00pm 25.3 ESE 11 16 1014.2 - 1.6 - Partly cloudy - - - - -
22/05:30pm 26.1 ESE 11 18 1014.0 - 1.6 - - - - - - -
22/05:00pm 26.6 SE 15 19 1013.7 - 1.6 - - - - - - -
22/04:30pm 26.5 ESE 13 18 1013.7 - 1.4 - Partly cloudy - - - - -
22/04:00pm 25.2 SE 16 27 1013.9 - 1.4 - Partly cloudy - - - - -
22/03:55pm 25.5 ESE 15 27 1014.0 - 1.4 - Partly cloudy - - - - -
22/03:30pm 25.0 SE 14 20 1013.9 - 1.4 - Partly cloudy - - - - -
22/03:00pm 26.3 ESE 10 17 1013.9 - 1.4 Fine Partly cloudy 18 - - - -
22/02:30pm 25.8 ESE 10 13 1014.1 - 1.4 - Partly cloudy - - - - -
22/02:00pm 24.5 ESE 13 17 1014.5 - 1.4 - Partly cloudy - - - - -
22/01:30pm 24.9 E 12 18 1014.8 - 1.2 - Partly cloudy - - - - -
22/01:00pm 27.1 ESE 14 21 1015.2 - 0.8 - Partly cloudy - - - - -
22/12:30pm 28.3 ESE 15 22 1015.4 - 0.8 - - - - - - -
22/12:00pm 27.4 ESE 17 24 1015.8 - 0.8 - Partly cloudy - - - - -
22/11:30am 25.5 ESE 10 16 1016.2 - 0.8 - Partly cloudy - - - - -
22/11:00am 24.9 ESE 8 14 1016.5 - 0.4 - Partly cloudy - - - - -
22/10:30am 29.4 SSE 13 32 1016.7 - 0.2 - Partly cloudy - - - - -
22/10:00am - SE 9 13 1016.8 - 0.2 - Partly cloudy - - - - -
22/09:30am - ESE 15 22 1016.8 - 0.0 - Partly cloudy - - - - -
22/09:00am 25.6 ESE 14 19 1016.7 - 6.0 Fine Mostly cloudy 18 - - - -
22/08:30am 25.2 SE 13 19 1016.7 - 6.0 - Partly cloudy - - - - -
22/08:00am 24.2 ESE 11 15 1016.4 - 6.0 - Partly cloudy - - - - -
22/07:37am 24.4 ESE 8 11 1016.2 - 6.0 - Partly cloudy - - - - -
22/07:30am 23.8 ESE 9 13 1016.0 - 5.8 - Partly cloudy - - - - -
22/07:27am 23.7 ESE 10 13 1015.9 - 5.8 - Partly cloudy - - - - -
22/07:00am 24.0 ESE 8 13 1015.6 - 3.6 - Partly cloudy - - - - -
22/06:30am 24.0 SE 12 21 1015.2 - 3.6 - Partly cloudy - - - - -
22/06:00am 24.2 ESE 9 13 1014.9 - 3.6 - Partly cloudy - - - - -
22/05:30am 23.9 ESE 8 12 1014.7 - 3.6 - Partly cloudy - - - - -
22/05:00am 23.7 ESE 8 14 1014.5 - 3.6 - Partly cloudy - - - - -
22/04:30am 23.3 ESE 10 15 1014.4 - 3.6 - Partly cloudy - - - - -
22/04:24am 23.4 ESE 13 20 1014.4 - 3.6 - Partly cloudy - - - - -
22/04:10am 24.1 ESE 11 16 1014.4 - 0.0 - Partly cloudy - - - - -
22/04:00am 24.8 ESE 10 14 1014.4 - 0.0 - Partly cloudy - - - - -
22/03:30am 24.7 ESE 12 17 1014.3 - 0.0 - Partly cloudy - - - - -
22/03:00am 24.9 SE 13 21 1014.2 - 0.0 - Partly cloudy - - - - -
22/02:30am 25.1 ESE 15 20 1014.6 - 0.0 - Partly cloudy - - - - -
22/02:00am 25.0 SE 10 15 1014.8 - 0.0 - Partly cloudy - - - - -
22/01:30am 25.1 ESE 10 16 1015.2 - 0.0 - Partly cloudy - - - - -
22/01:00am 25.1 ESE 8 12 1015.6 - 0.0 - Partly cloudy - - - - -
22/12:30am 25.2 ESE 14 19 1015.9 - 0.0 - Partly cloudy - - - - -
22/12:00am 25.2 ESE 12 17 1016.3 - 0.0 - Partly cloudy - - - - -
 
Date/Time
EST
Temp

°C
Wind Pressure Rain
since 9am
mm
Weather Cloud Vis
km
Sea
Height
m
Swell
Dir
 
Speed
knots
Gust
knots
hPa Trend Height
m
Period
s
Dir
21/11:30pm 25.3 ESE 13 19 1016.8 - 0.0 - Cloudy - - - - -
21/11:00pm 25.3 ESE 12 16 1016.9 - 0.0 - Partly cloudy - - - - -
21/10:30pm 25.3 SE 13 18 1017.1 - 0.0 - Partly cloudy - - - - -
21/10:00pm 25.3 ESE 12 19 1017.0 - 0.0 - Partly cloudy - - - - -
21/09:30pm 25.4 ESE 13 20 1016.7 - 0.0 - Partly cloudy - - - - -
21/09:00pm 25.6 ESE 13 21 1016.4 - 0.0 - Partly cloudy - - - - -
21/08:30pm 25.4 ESE 13 20 1016.2 - 0.0 - Partly cloudy - - - - -
21/08:00pm 25.5 ESE 12 18 1016.2 - 0.0 - Partly cloudy - - - - -
21/07:30pm 25.6 ESE 11 16 1016.1 - 0.0 - Partly cloudy - - - - -
21/07:00pm 25.8 ESE 11 17 1016.0 - 0.0 - Partly cloudy - - - - -
21/06:30pm 26.0 SE 13 18 1015.5 - 0.0 - Partly cloudy - - - - -
21/06:00pm 26.2 SE 14 20 1015.0 - 0.0 - Partly cloudy - - - - -
21/05:30pm 26.3 ESE 14 21 1014.7 - 0.0 - Partly cloudy - - - - -
21/05:00pm 26.9 SE 15 21 1014.3 - 0.0 - Partly cloudy - - - - -
21/04:30pm 27.5 ESE 17 23 1014.1 - 0.0 - Partly cloudy - - - - -
21/04:00pm 27.7 SE 16 22 1014.0 - 0.0 - Partly cloudy - - - - -
21/03:30pm 29.0 ESE 16 21 1014.1 - 0.0 - Partly cloudy - - - - -
21/03:00pm 28.5 ESE 16 23 1014.1 - 0.0 Fine Mostly cloudy 25 - - - -
21/02:30pm 28.8 ESE 16 23 1014.3 - 0.0 - Partly cloudy - - - - -
21/02:08pm 28.7 ESE 17 27 1014.4 - 0.0 - Partly cloudy - - - - -
21/02:00pm 28.6 ESE 18 26 1014.5 - 0.0 - Partly cloudy - - - - -
21/01:52pm 29.1 ESE 16 26 1014.4 - 0.0 - - - - - - -
21/01:30pm 30.2 ESE 16 22 1014.7 - 0.0 - - - - - - -
21/01:00pm 29.4 ESE 14 23 1015.2 - 0.0 - Partly cloudy - - - - -
21/12:45pm 29.0 ESE 15 26 1015.4 - 0.0 - Partly cloudy - - - - -
21/12:30pm 29.8 SE 16 22 1015.6 - 0.0 - Partly cloudy - - - - -
21/12:00pm 29.8 SE 17 23 1016.1 - 0.0 - Partly cloudy - - - - -
21/11:30am 28.3 SE 17 23 1016.6 - 0.0 - Partly cloudy - - - - -
21/11:00am 28.9 ESE 14 22 1016.8 - 0.0 - Partly cloudy - - - - -
21/10:30am 28.1 ESE 15 22 1016.9 - 0.0 - Partly cloudy - - - - -
21/10:00am 28.2 ESE 15 23 1017.0 - 0.0 - Partly cloudy - - - - -
21/09:30am 27.7 ESE 13 20 1016.7 - 0.0 - Partly cloudy - - - - -
21/09:20am 28.2 SE 15 25 1016.7 - 0.0 - Partly cloudy - - - - -
21/09:00am 27.3 SE 16 22 1016.6 - 0.0 Fine Mostly cloudy 25 - - - -
21/08:30am 28.6 SE 17 23 1016.6 - 0.0 - Partly cloudy - - - - -
21/08:00am 26.9 ESE 14 21 1016.4 - 0.0 - Partly cloudy - - - - -
21/07:30am 25.6 SE 13 18 1015.9 - 0.0 - Partly cloudy - - - - -
21/07:00am 25.2 SE 11 17 1015.5 - 0.0 - Partly cloudy - - - - -
21/06:30am 24.7 SE 10 12 1015.2 - 0.0 - Partly cloudy - - - - -
21/06:00am 24.2 SE 9 12 1014.8 - 0.0 - Partly cloudy - - - - -
21/05:30am 24.4 SE 13 16 1014.8 - 0.0 - Partly cloudy - - - - -
21/05:00am 24.4 SE 12 16 1014.5 - 0.0 - Partly cloudy - - - - -
21/04:30am 24.5 ESE 12 20 1014.3 - 0.0 - Partly cloudy - - - - -
21/04:00am 24.6 SE 11 15 1014.2 - 0.0 - Partly cloudy - - - - -
21/03:30am 24.7 SE 11 17 1014.2 - 0.0 - Partly cloudy - - - - -
21/03:00am 24.6 SE 11 17 1014.2 - 0.0 - Partly cloudy - - - - -
21/02:30am 24.8 SE 13 17 1014.5 - 0.0 - Partly cloudy - - - - -
21/02:00am 25.0 ESE 14 20 1014.8 - 0.0 - Partly cloudy - - - - -
21/01:30am 25.0 SE 13 19 1015.0 - 0.0 - Partly cloudy - - - - -
21/01:00am 25.1 ESE 14 21 1015.2 - 0.0 - Partly cloudy - - - - -
21/12:30am 25.2 ESE 15 21 1015.5 - 0.0 - Partly cloudy - - - - -
21/12:00am 25.2 ESE 12 18 1015.7 - 0.0 - Partly cloudy - - - - -
 
Date/Time
EST
Temp

°C
Wind Pressure Rain
since 9am
mm
Weather Cloud Vis
km
Sea
Height
m
Swell
Dir
 
Speed
knots
Gust
knots
hPa Trend Height
m
Period
s
Dir
20/11:30pm 25.3 SE 16 21 1016.1 - 0.0 - Partly cloudy - - - - -
20/11:00pm 25.3 ESE 14 20 1016.2 - 0.0 - Partly cloudy - - - - -
20/10:30pm 25.5 SE 15 24 1016.2 - 0.0 - Partly cloudy - - - - -
20/10:00pm 25.5 ESE 15 21 1016.1 - 0.0 - Partly cloudy - - - - -
20/09:30pm 25.5 ESE 14 20 1015.8 - 0.0 - Partly cloudy - - - - -
20/09:00pm 25.7 SE 15 25 1015.5 - 0.0 - Partly cloudy - - - - -
20/08:30pm 25.7 ESE 16 25 1015.4 - 0.0 - Partly cloudy - - - - -
20/08:27pm 25.7 SE 15 25 1015.4 - 0.0 - Partly cloudy - - - - -
20/08:00pm 25.7 SE 15 21 1015.1 - 0.0 - Partly cloudy - - - - -
20/07:48pm 25.7 ESE 15 25 1015.1 - 0.0 - Partly cloudy - - - - -
20/07:30pm 25.7 ESE 14 22 1014.9 - 0.0 - Partly cloudy - - - - -
20/07:00pm 25.9 SE 14 19 1014.7 - 0.0 - Partly cloudy - - - - -
20/06:30pm 26.0 SE 15 22 1014.4 - 0.0 - Cloudy - - - - -
20/06:00pm 26.0 SE 15 22 1013.9 - 0.0 - Cloudy - - - - -
20/05:30pm 26.2 ESE 15 23 1013.7 - 0.0 - Partly cloudy - - - - -
20/05:00pm 26.6 SE 18 25 1013.4 - 0.0 - Partly cloudy - - - - -
20/04:53pm 26.6 ESE 15 25 1013.5 - 0.0 - Partly cloudy - - - - -
20/04:30pm 26.8 ESE 15 22 1013.5 - 0.0 - Partly cloudy - - - - -
20/04:00pm 27.2 ESE 16 22 1013.5 - 0.0 - Partly cloudy - - - - -
20/03:30pm 28.3 SE 15 21 1013.5 - 0.0 - Partly cloudy - - - - -
20/03:00pm 27.8 SE 16 22 1013.6 - 0.0 Fine Cloudy 18 - - - -
20/02:39pm 27.7 ESE 16 26 1013.6 - 0.0 - Partly cloudy - - - - -
20/02:30pm 27.6 ESE 18 25 1013.8 - 0.0 - Partly cloudy - - - - -
20/02:00pm 28.6 ESE 17 23 1013.9 - 0.0 - Partly cloudy - - - - -
20/01:47pm 27.7 ESE 18 29 1014.1 - 0.0 - Cloudy - - - - -
20/01:30pm 27.7 ESE 15 22 1014.2 - 0.0 - Partly cloudy - - - - -
20/01:14pm 28.8 SE 20 30 1014.4 - 0.0 - Partly cloudy - - - - -
20/01:00pm 29.0 ESE 16 24 1014.7 - 0.0 - Partly cloudy - - - - -
20/12:30pm 29.2 ESE 18 26 1015.1 - 0.0 - - - - - - -
20/12:03pm 27.8 ESE 17 27 1015.4 - 0.0 - Partly cloudy - - - - -
20/12:00pm 28.1 ESE 16 25 1015.3 - 0.0 - Partly cloudy - - - - -

Other Formats:

Comma delimited format used in spreadsheet applications
http://www.bom.gov.au/fwo/IDQ60701/IDQ60701.94186.axf

JavaScript Object Notation format (JSON) in row-major order
http://www.bom.gov.au/fwo/IDQ60701/IDQ60701.94186.json